createdAt,value
2019-01-26T00:02:25.529Z,100777.69
2019-01-26T00:04:57.225Z,100765.87
2019-01-26T00:07:29.203Z,100764.63
2019-01-26T00:10:00.941Z,100761.36
2019-01-26T00:12:32.618Z,100761.38
2019-01-26T00:15:10.372Z,100760.29
2019-01-26T00:17:42.069Z,100767.97
2019-01-26T00:20:13.750Z,100769.72
2019-01-26T00:22:45.457Z,100772.45
2019-01-26T00:25:17.141Z,100768.19
2019-01-26T00:27:48.843Z,100769.42
2019-01-26T00:30:20.549Z,100763.02
2019-01-26T00:32:52.238Z,100760.58
2019-01-26T00:35:23.942Z,100754.97
2019-01-26T00:37:55.624Z,100744.75
2019-01-26T00:40:27.370Z,100735.69
2019-01-26T00:42:59.046Z,100730.14
2019-01-26T00:45:30.757Z,100726.22
2019-01-26T00:48:02.457Z,100734.98
2019-01-26T00:50:34.147Z,100724.24
2019-01-26T00:53:05.846Z,100711.56
2019-01-26T00:55:37.823Z,100708.11
2019-01-26T00:58:09.895Z,100705.77
2019-01-26T01:00:41.584Z,100680.98
2019-01-26T01:03:13.623Z,100662.19
2019-01-26T01:05:45.318Z,100659.34
2019-01-26T01:08:17.117Z,100648.31
2019-01-26T01:10:48.826Z,100633.70
2019-01-26T01:13:20.513Z,100636.13
2019-01-26T01:15:52.224Z,100638.11
2019-01-26T01:18:23.898Z,100637.64
2019-01-26T01:20:55.675Z,100642.58
2019-01-26T01:23:27.396Z,100636.20
2019-01-26T01:25:59.078Z,100628.38
2019-01-26T01:28:30.775Z,100625.14
2019-01-26T01:31:02.648Z,100628.31
2019-01-26T01:33:34.410Z,100625.75
2019-01-26T01:36:06.167Z,100624.23
2019-01-26T01:38:37.951Z,100617.53
2019-01-26T01:41:09.648Z,100612.76
2019-01-26T01:43:41.443Z,100612.32
2019-01-26T01:46:13.127Z,100606.69
2019-01-26T01:48:44.816Z,100612.45
2019-01-26T01:51:16.526Z,100607.30
2019-01-26T01:53:48.479Z,100597.63
2019-01-26T01:56:20.455Z,100604.70
2019-01-26T01:58:52.144Z,100598.09
2019-01-26T02:01:23.820Z,100600.80
2019-01-26T02:03:55.573Z,100594.38
2019-01-26T02:06:27.257Z,100592.87
2019-01-26T02:08:58.943Z,100585.13
2019-01-26T02:11:30.615Z,100579.80
2019-01-26T02:14:02.303Z,100583.84
2019-01-26T02:16:33.993Z,100580.64
2019-01-26T02:19:05.744Z,100574.42
2019-01-26T02:21:37.437Z,100571.60
2019-01-26T02:24:09.481Z,100570.33
2019-01-26T02:26:41.165Z,100555.56
2019-01-26T02:29:12.856Z,100565.47
2019-01-26T02:31:44.869Z,100562.48
2019-01-26T02:34:16.565Z,100561.97
2019-01-26T02:36:48.315Z,100561.77
2019-01-26T02:39:20.003Z,100557.93
2019-01-26T02:41:51.674Z,100558.95
2019-01-26T02:44:23.359Z,100561.88
2019-01-26T02:46:58.026Z,100553.70
2019-01-26T02:49:28.466Z,100550.89
2019-01-26T02:52:00.103Z,100547.39
2019-01-26T02:54:31.799Z,100547.62
2019-01-26T02:57:03.504Z,100547.88
2019-01-26T02:59:35.257Z,100541.44
2019-01-26T03:02:07.298Z,100549.86
2019-01-26T03:04:39.152Z,100553.55
2019-01-26T03:07:10.855Z,100546.04
2019-01-26T03:09:42.538Z,100547.62
2019-01-26T03:12:14.241Z,100542.89
2019-01-26T03:14:45.928Z,100540.03
2019-01-26T03:17:17.692Z,100536.34
2019-01-26T03:19:49.713Z,100544.70
2019-01-26T03:22:21.403Z,100547.97
2019-01-26T03:24:53.442Z,100538.94
2019-01-26T03:27:25.112Z,100542.06
2019-01-26T03:29:56.812Z,100536.41
2019-01-26T03:32:28.823Z,100532.89
2019-01-26T03:35:00.505Z,100528.84
2019-01-26T03:37:32.198Z,100528.37
2019-01-26T03:40:05.976Z,100529.42
2019-01-26T03:42:37.663Z,100514.70
2019-01-26T03:45:12.555Z,100507.05
2019-01-26T03:47:46.010Z,100515.00
2019-01-26T03:50:17.695Z,100513.27
2019-01-26T03:52:49.955Z,100509.83
2019-01-26T03:55:22.629Z,100509.45
2019-01-26T03:57:54.333Z,100503.08
2019-01-26T04:00:28.038Z,100498.73
2019-01-26T04:02:59.736Z,100499.39
2019-01-26T04:05:31.497Z,100494.64
2019-01-26T04:08:04.151Z,100485.03
2019-01-26T04:10:36.160Z,100486.31
2019-01-26T04:13:07.869Z,100485.13
2019-01-26T04:15:39.550Z,100478.54
2019-01-26T04:18:11.535Z,100471.69
2019-01-26T04:20:43.307Z,100467.51
2019-01-26T04:23:14.986Z,100469.64
2019-01-26T04:25:46.676Z,100471.25
2019-01-26T04:28:18.781Z,100465.45
2019-01-26T04:30:50.465Z,100468.26
2019-01-26T04:33:22.164Z,100459.57
2019-01-26T04:35:53.835Z,100464.20
2019-01-26T04:38:25.534Z,100469.84
2019-01-26T04:40:57.234Z,100461.32
2019-01-26T04:43:28.929Z,100462.59
2019-01-26T04:46:00.992Z,100458.45
2019-01-26T04:48:32.671Z,100444.63
2019-01-26T04:51:04.451Z,100439.40
2019-01-26T04:53:36.407Z,100434.86
2019-01-26T04:56:08.170Z,100430.33
2019-01-26T04:58:43.016Z,100438.86
2019-01-26T05:01:14.781Z,100435.80
2019-01-26T05:03:46.511Z,100429.78
2019-01-26T05:06:18.523Z,100426.28
2019-01-26T05:08:50.387Z,100421.06
2019-01-26T05:11:22.443Z,100420.45
2019-01-26T05:13:54.143Z,100420.67
2019-01-26T05:16:25.825Z,100424.72
2019-01-26T05:18:57.683Z,100414.53
2019-01-26T05:21:29.429Z,100415.17
2019-01-26T05:24:01.127Z,100418.27
2019-01-26T05:26:33.169Z,100415.66
2019-01-26T05:29:05.128Z,100420.01
2019-01-26T05:31:37.078Z,100425.83
2019-01-26T05:34:09.045Z,100424.13
2019-01-26T05:36:40.894Z,100427.59
2019-01-26T05:39:12.583Z,100427.31
2019-01-26T05:41:44.280Z,100415.66
2019-01-26T05:44:16.469Z,100409.48
2019-01-26T05:46:48.519Z,100402.50
2019-01-26T05:49:20.280Z,100410.80
2019-01-26T05:51:52.232Z,100413.89
2019-01-26T05:54:24.192Z,100401.31
2019-01-26T05:56:55.872Z,100403.72
2019-01-26T05:59:27.954Z,100404.95
2019-01-26T06:01:59.799Z,100411.39
2019-01-26T06:04:31.506Z,100409.14
2019-01-26T06:07:03.190Z,100409.37
2019-01-26T06:09:35.153Z,100411.05
2019-01-26T06:12:06.840Z,100405.70
2019-01-26T06:14:38.524Z,100407.92
2019-01-26T06:17:10.211Z,100410.47
2019-01-26T06:19:41.879Z,100400.62
2019-01-26T06:22:13.586Z,100413.11
2019-01-26T06:24:45.260Z,100408.41
2019-01-26T06:27:16.955Z,100405.00
2019-01-26T06:29:48.631Z,100404.00
2019-01-26T06:32:20.694Z,100397.23
2019-01-26T06:34:52.494Z,100390.31
2019-01-26T06:37:24.287Z,100391.09
2019-01-26T06:39:55.969Z,100385.13
2019-01-26T06:42:27.677Z,100382.39
2019-01-26T06:44:59.359Z,100383.72
2019-01-26T06:47:31.065Z,100379.47
2019-01-26T06:50:02.813Z,100378.53
2019-01-26T06:52:35.435Z,100382.36
2019-01-26T06:55:10.227Z,100376.12
2019-01-26T06:57:41.905Z,100383.05
2019-01-26T07:00:23.759Z,100381.72
2019-01-26T07:02:56.006Z,100379.18
2019-01-26T07:05:32.314Z,100376.37
2019-01-26T07:08:04.360Z,100372.23
2019-01-26T07:10:36.060Z,100374.55
2019-01-26T07:13:07.759Z,100371.84
2019-01-26T07:15:39.441Z,100367.45
2019-01-26T07:18:11.122Z,100359.92
2019-01-26T07:20:42.825Z,100362.17
2019-01-26T07:23:14.498Z,100364.88
2019-01-26T07:25:46.187Z,100365.46
2019-01-26T07:28:17.871Z,100370.61
2019-01-26T07:30:49.555Z,100374.80
2019-01-26T07:33:21.242Z,100379.14
2019-01-26T07:35:52.944Z,100374.73
2019-01-26T07:38:24.622Z,100360.84
2019-01-26T07:40:56.315Z,100359.04
2019-01-26T07:43:27.995Z,100358.36
2019-01-26T07:45:59.686Z,100355.47
2019-01-26T07:48:31.680Z,100361.80
2019-01-26T07:51:03.354Z,100361.20
2019-01-26T07:53:35.056Z,100361.84
2019-01-26T07:56:06.726Z,100368.16
2019-01-26T07:58:38.422Z,100371.92
2019-01-26T08:01:10.111Z,100369.16
2019-01-26T08:03:41.811Z,100368.70
2019-01-26T08:06:13.494Z,100366.41
2019-01-26T08:08:45.211Z,100361.74
2019-01-26T08:11:16.884Z,100366.05
2019-01-26T08:13:48.594Z,100373.81
2019-01-26T08:16:20.620Z,100379.58
2019-01-26T08:18:52.321Z,100384.03
2019-01-26T08:21:24.015Z,100378.45
2019-01-26T08:23:55.684Z,100378.26
2019-01-26T08:26:27.393Z,100376.94
2019-01-26T08:28:59.073Z,100376.70
2019-01-26T08:31:30.773Z,100384.69
2019-01-26T08:34:02.462Z,100380.27
2019-01-26T08:36:34.138Z,100379.56
2019-01-26T08:39:07.954Z,100370.80
2019-01-26T08:41:39.628Z,100371.92
2019-01-26T08:44:11.310Z,100376.81
2019-01-26T08:46:43.366Z,100382.16
2019-01-26T08:49:15.046Z,100378.80
2019-01-26T08:51:46.753Z,100377.41
2019-01-26T08:54:18.447Z,100385.47
2019-01-26T08:56:50.123Z,100387.21
2019-01-26T08:59:22.160Z,100380.02
2019-01-26T09:01:55.557Z,100376.41
2019-01-26T09:04:27.321Z,100373.37
2019-01-26T09:06:59.001Z,100381.00
2019-01-26T09:09:30.686Z,100373.19
2019-01-26T09:12:02.644Z,100370.34
2019-01-26T09:14:34.663Z,100373.14
2019-01-26T09:17:06.376Z,100372.48
2019-01-26T09:19:38.380Z,100374.05
2019-01-26T09:22:10.065Z,100370.81
2019-01-26T09:24:41.738Z,100366.81
2019-01-26T09:27:13.423Z,100367.02
2019-01-26T09:29:45.097Z,100366.69
2019-01-26T09:32:16.787Z,100363.55
2019-01-26T09:34:48.458Z,100366.52
2019-01-26T09:37:20.136Z,100366.58
2019-01-26T09:39:51.820Z,100363.65
2019-01-26T09:59:46.337Z,100350.58
2019-01-26T10:02:18.314Z,100347.91
2019-01-26T10:04:50.082Z,100351.42
2019-01-26T10:07:21.863Z,100347.17
2019-01-26T10:09:53.544Z,100334.78
2019-01-26T10:12:25.341Z,100350.77
2019-01-26T10:14:57.020Z,100341.33
2019-01-26T10:17:29.080Z,100352.31
2019-01-26T10:20:00.766Z,100350.43
2019-01-26T10:22:32.894Z,100337.55
2019-01-26T10:25:07.074Z,100342.22
2019-01-26T10:27:38.829Z,100344.48
2019-01-26T10:30:32.010Z,100345.35
2019-01-26T10:33:03.952Z,100340.89
2019-01-26T10:35:37.355Z,100337.13
2019-01-26T10:38:10.068Z,100332.59
2019-01-26T10:40:43.791Z,100341.05
2019-01-26T10:43:17.541Z,100342.44
2019-01-26T10:45:49.221Z,100340.12
2019-01-26T10:48:21.034Z,100336.02
2019-01-26T10:50:52.717Z,100338.23
2019-01-26T10:53:24.525Z,100341.41
2019-01-26T10:55:56.204Z,100334.42
2019-01-26T10:58:27.947Z,100331.13
2019-01-26T11:01:00.081Z,100332.77
2019-01-26T11:03:31.837Z,100333.09
2019-01-26T11:06:03.514Z,100326.00
2019-01-26T11:08:35.190Z,100329.32
2019-01-26T11:11:06.909Z,100329.14
2019-01-26T11:13:38.575Z,100321.28
2019-01-26T11:16:10.351Z,100313.12
2019-01-26T11:18:42.088Z,100321.28
2019-01-26T11:21:13.838Z,100318.97
2019-01-26T11:23:45.676Z,100314.28
2019-01-26T11:26:17.430Z,100311.44
2019-01-26T11:28:49.097Z,100299.92
2019-01-26T11:31:21.450Z,100306.59
2019-01-26T11:33:53.118Z,100299.59
2019-01-26T11:36:24.871Z,100302.63
2019-01-26T11:38:56.538Z,100294.74
2019-01-26T11:41:28.984Z,100296.02
2019-01-26T11:44:00.694Z,100291.86
2019-01-26T11:46:32.351Z,100248.46
2019-01-26T11:49:04.501Z,100277.48
2019-01-26T11:51:37.896Z,100284.97
2019-01-26T11:54:09.564Z,100278.44
2019-01-26T11:56:44.620Z,100276.13
2019-01-26T11:59:18.034Z,100275.16
2019-01-26T12:01:51.441Z,100267.36
2019-01-26T12:04:25.036Z,100275.61
2019-01-26T12:06:58.443Z,100276.48
2019-01-26T12:09:30.107Z,100275.39
2019-01-26T12:12:01.895Z,100278.88
2019-01-26T12:14:33.567Z,100270.26
2019-01-26T12:17:06.244Z,100272.28
2019-01-26T12:19:38.348Z,100277.98
2019-01-26T12:22:10.024Z,100278.14
2019-01-26T12:24:41.691Z,100281.91
2019-01-26T12:27:13.716Z,100273.25
2019-01-26T12:29:45.560Z,100278.45
2019-01-26T12:32:17.358Z,100275.14
2019-01-26T12:34:49.097Z,100274.55
2019-01-26T12:37:20.778Z,100274.01
2019-01-26T12:39:52.455Z,100271.27
2019-01-26T12:42:24.483Z,100274.52
2019-01-26T12:44:56.449Z,100273.61
2019-01-26T12:47:28.194Z,100275.89
2019-01-26T12:49:59.872Z,100273.73
2019-01-26T12:52:31.568Z,100271.23
2019-01-26T12:55:03.584Z,100275.78
2019-01-26T12:57:35.430Z,100276.27
2019-01-26T13:00:14.515Z,100274.08
2019-01-26T13:02:46.248Z,100273.41
2019-01-26T13:05:17.931Z,100271.47
2019-01-26T13:07:49.600Z,100266.41
2019-01-26T13:10:28.912Z,100271.77
2019-01-26T13:13:00.722Z,100267.84
2019-01-26T13:15:32.434Z,100263.56
2019-01-26T13:18:04.293Z,100260.34
2019-01-26T13:20:36.134Z,100258.67
2019-01-26T13:23:07.942Z,100263.05
2019-01-26T13:25:40.081Z,100257.91
2019-01-26T13:28:11.845Z,100255.16
2019-01-26T13:30:43.526Z,100255.56
2019-01-26T13:33:15.534Z,100251.56
2019-01-26T13:35:47.240Z,100247.15
2019-01-26T13:38:19.176Z,100244.83
2019-01-26T13:40:50.854Z,100245.32
2019-01-26T13:43:22.708Z,100243.50
2019-01-26T13:45:57.331Z,100240.91
2019-01-26T13:48:29.020Z,100238.44
2019-01-26T13:51:00.694Z,100241.34
2019-01-26T13:53:32.470Z,100238.92
2019-01-26T13:56:04.434Z,100241.63
2019-01-26T13:58:36.177Z,100241.41
2019-01-26T14:01:07.860Z,100234.94
2019-01-26T14:03:39.523Z,100235.20
2019-01-26T14:06:11.274Z,100238.23
2019-01-26T14:08:42.999Z,100236.83
2019-01-26T14:11:15.019Z,100229.77
2019-01-26T14:13:47.345Z,100231.69
2019-01-26T14:16:19.342Z,100227.96
2019-01-26T14:18:51.448Z,100230.77
2019-01-26T14:21:23.306Z,100227.37
2019-01-26T14:23:54.967Z,100225.98
2019-01-26T14:26:26.667Z,100225.55
2019-01-26T14:28:58.328Z,100225.70
2019-01-26T14:31:30.194Z,100229.31
2019-01-26T14:34:01.867Z,100219.33
2019-01-26T14:36:33.621Z,100227.43
2019-01-26T14:39:08.089Z,100226.94
2019-01-26T14:41:39.845Z,100224.27
2019-01-26T14:44:11.577Z,100222.48
2019-01-26T14:46:44.030Z,100228.23
2019-01-26T14:49:15.726Z,100222.70
2019-01-26T14:51:47.387Z,100228.95
2019-01-26T14:54:19.107Z,100228.52
2019-01-26T14:56:50.763Z,100222.64
2019-01-26T14:59:22.462Z,100225.17
2019-01-26T15:01:54.198Z,100224.45
2019-01-26T15:04:26.046Z,100222.12
2019-01-26T15:06:57.712Z,100215.82
2019-01-26T15:09:29.704Z,100220.72
2019-01-26T15:12:01.441Z,100215.16
2019-01-26T15:14:34.090Z,100210.78
2019-01-26T15:17:05.928Z,100206.69
2019-01-26T15:19:37.631Z,100203.45
2019-01-26T15:22:09.647Z,100202.48
2019-01-26T15:24:41.341Z,100202.26
2019-01-26T15:27:13.006Z,100204.69
2019-01-26T15:29:44.702Z,100198.88
2019-01-26T15:32:16.381Z,100204.81
2019-01-26T15:34:48.058Z,100206.16
2019-01-26T15:37:20.592Z,100203.73
2019-01-26T15:39:52.700Z,100203.90
2019-01-26T15:42:24.442Z,100207.86
2019-01-26T15:44:56.148Z,100206.25
2019-01-26T15:47:27.822Z,100212.72
2019-01-26T15:49:59.503Z,100208.16
2019-01-26T15:52:31.246Z,100212.02
2019-01-26T15:55:03.096Z,100206.56
2019-01-26T15:57:35.093Z,100202.45
2019-01-26T16:00:11.750Z,100200.70
2019-01-26T16:02:43.497Z,100197.67
2019-01-26T16:05:15.195Z,100194.31
2019-01-26T16:07:46.865Z,100196.15
2019-01-26T16:10:24.328Z,100190.53
2019-01-26T16:12:58.058Z,100186.00
2019-01-26T16:15:33.115Z,100192.27
2019-01-26T16:18:08.287Z,100187.78
2019-01-26T16:20:41.267Z,100190.77
2019-01-26T16:23:12.959Z,100187.69
2019-01-26T16:25:44.636Z,100187.38
2019-01-26T16:28:16.403Z,100180.31
2019-01-26T16:30:48.070Z,100183.37
2019-01-26T16:33:19.748Z,100178.09
2019-01-26T16:35:51.422Z,100182.89
2019-01-26T16:38:23.170Z,100184.67
2019-01-26T16:40:55.188Z,100186.41
2019-01-26T16:43:26.882Z,100183.44
2019-01-26T16:45:58.617Z,100184.57
2019-01-26T16:48:30.308Z,100182.52
2019-01-26T16:51:02.332Z,100181.55
2019-01-26T16:53:34.101Z,100178.09
2019-01-26T16:56:05.767Z,100174.19
2019-01-26T16:58:37.524Z,100174.59
2019-01-26T17:01:09.197Z,100174.84
2019-01-26T17:03:41.342Z,100174.44
2019-01-26T17:06:13.396Z,100167.26
2019-01-26T17:08:45.072Z,100166.77
2019-01-26T17:11:16.809Z,100164.73
2019-01-26T17:13:48.495Z,100156.64
2019-01-26T17:16:20.185Z,100160.20
2019-01-26T17:18:51.871Z,100151.97
2019-01-26T17:21:23.535Z,100151.48
2019-01-26T17:23:55.221Z,100143.48
2019-01-26T17:26:26.889Z,100143.95
2019-01-26T17:28:59.037Z,100142.83
2019-01-26T17:31:30.795Z,100142.61
2019-01-26T17:34:03.659Z,100138.02
2019-01-26T17:36:35.335Z,100139.91
2019-01-26T17:39:09.225Z,100143.58
2019-01-26T17:41:40.904Z,100143.20
2019-01-26T17:44:12.937Z,100136.94
2019-01-26T17:46:44.619Z,100134.78
2019-01-26T17:49:16.296Z,100133.53
2019-01-26T17:51:48.433Z,100138.83
2019-01-26T17:54:20.116Z,100139.14
2019-01-26T17:56:51.972Z,100141.91
2019-01-26T17:59:23.908Z,100133.33
2019-01-26T18:01:55.670Z,100129.02
2019-01-26T18:04:27.580Z,100124.43
2019-01-26T18:06:59.637Z,100122.00
2019-01-26T18:09:31.592Z,100117.91
2019-01-26T18:12:04.460Z,100117.80
2019-01-26T18:14:36.476Z,100106.91
2019-01-26T18:17:08.152Z,100098.22
2019-01-26T18:19:39.838Z,100096.49
2019-01-26T18:22:11.505Z,100095.27
2019-01-26T18:24:44.359Z,100088.14
2019-01-26T18:27:16.045Z,100083.18
2019-01-26T18:29:47.710Z,100082.42
2019-01-26T18:32:20.902Z,100088.16
2019-01-26T18:34:52.806Z,100083.94
2019-01-26T18:37:25.216Z,100082.33
2019-01-26T18:39:56.971Z,100077.95
2019-01-26T18:42:28.758Z,100081.09
2019-01-26T18:45:00.408Z,100084.33
2019-01-26T18:47:32.088Z,100074.86
2019-01-26T18:50:06.532Z,100066.12
2019-01-26T18:52:38.211Z,100064.18
2019-01-26T18:55:09.942Z,100059.73
2019-01-26T18:57:41.630Z,100059.00
2019-01-26T19:00:20.542Z,100057.17
2019-01-26T19:03:03.577Z,100051.72
2019-01-26T19:05:38.964Z,100049.56
2019-01-26T19:08:10.711Z,100048.98
2019-01-26T19:10:42.414Z,100046.87
2019-01-26T19:13:15.816Z,100042.12
2019-01-26T19:15:47.500Z,100040.23
2019-01-26T19:18:19.656Z,100037.01
2019-01-26T19:20:51.328Z,100033.94
2019-01-26T19:23:23.611Z,100031.18
2019-01-26T19:25:56.639Z,100028.91
2019-01-26T19:28:28.344Z,100017.43
2019-01-26T19:30:59.999Z,100016.41
2019-01-26T19:33:31.756Z,100009.02
2019-01-26T19:36:03.888Z,100016.41
2019-01-26T19:38:35.640Z,100012.64
2019-01-26T19:41:07.327Z,100013.49
2019-01-26T19:43:39.062Z,100014.12
2019-01-26T19:46:11.057Z,100015.41
2019-01-26T19:48:42.988Z,100009.16
2019-01-26T19:51:14.675Z,100009.20
2019-01-26T19:53:46.356Z,100006.23
2019-01-26T19:56:18.788Z,100012.06
2019-01-26T20:03:11.699Z,99991.23
2019-01-26T20:05:48.034Z,99981.53
2019-01-26T20:08:16.762Z,99978.30
2019-01-26T20:10:48.440Z,99978.09
2019-01-26T20:13:20.642Z,99982.84
2019-01-26T20:15:53.149Z,99976.80
2019-01-26T20:18:24.811Z,99973.34
2019-01-26T20:20:56.489Z,99972.97
2019-01-26T20:23:28.445Z,99961.78
2019-01-26T20:26:00.119Z,99961.63
2019-01-26T20:28:31.778Z,99954.66
2019-01-26T20:31:03.449Z,99951.86
2019-01-26T20:33:35.205Z,99945.98
2019-01-26T20:36:06.868Z,99940.97
2019-01-26T20:38:38.880Z,99933.53
2019-01-26T20:41:10.620Z,99933.31
2019-01-26T20:43:42.282Z,99928.46
2019-01-26T20:46:14.312Z,99919.95
2019-01-26T20:48:45.991Z,99915.52
2019-01-26T20:51:17.649Z,99908.19
2019-01-26T20:53:49.320Z,99902.37
2019-01-26T20:56:21.054Z,99906.36
2019-01-26T20:58:52.824Z,99899.23
2019-01-26T21:01:24.537Z,99893.15
2019-01-26T21:03:56.182Z,99890.29
2019-01-26T21:06:29.342Z,99879.98
2019-01-26T21:09:01.131Z,99885.52
2019-01-26T21:11:32.793Z,99878.20
2019-01-26T21:14:05.253Z,99872.88
2019-01-26T21:16:36.910Z,99871.84
2019-01-26T21:19:09.374Z,99866.39
2019-01-26T21:21:41.011Z,99862.95
2019-01-26T21:24:12.708Z,99854.75
2019-01-26T21:26:44.646Z,99853.09
2019-01-26T21:29:16.309Z,99847.27
2019-01-26T21:31:47.964Z,99841.45
2019-01-26T21:34:19.702Z,99843.77
2019-01-26T21:36:51.436Z,99841.29
2019-01-26T21:39:23.135Z,99842.72
2019-01-26T21:41:56.628Z,99851.16
2019-01-26T21:44:28.891Z,99845.38
2019-01-26T21:47:01.160Z,99836.92
2019-01-26T21:49:32.821Z,99834.66
2019-01-26T21:52:04.760Z,99829.20
2019-01-26T21:54:36.655Z,99827.75
2019-01-26T21:57:08.303Z,99820.09
2019-01-26T21:59:40.048Z,99813.67
2019-01-26T22:02:11.790Z,99810.06
2019-01-26T22:04:43.446Z,99808.12
2019-01-26T22:07:15.482Z,99805.59
2019-01-26T22:09:47.166Z,99803.21
2019-01-26T22:12:18.908Z,99799.92
2019-01-26T22:14:50.571Z,99799.59
2019-01-26T22:17:22.593Z,99799.77
2019-01-26T22:19:54.253Z,99794.85
2019-01-26T22:22:25.932Z,99790.81
2019-01-26T22:24:59.103Z,99791.56
2019-01-26T22:27:30.791Z,99789.99
2019-01-26T22:30:02.594Z,99786.22
2019-01-26T22:32:34.280Z,99786.55
2019-01-26T22:35:06.604Z,99783.22
2019-01-26T22:37:38.349Z,99781.22
2019-01-26T22:40:20.372Z,99779.38
2019-01-26T22:42:52.172Z,99776.31
2019-01-26T22:45:23.958Z,99778.30
2019-01-26T22:47:55.668Z,99773.50
2019-01-26T22:50:30.484Z,99763.25
2019-01-26T22:53:03.125Z,99767.73
2019-01-26T22:55:34.780Z,99765.36
2019-01-26T22:58:08.287Z,99774.52
2019-01-26T23:01:03.654Z,99767.19
2019-01-26T23:03:45.794Z,99762.16
2019-01-26T23:06:49.372Z,99753.22
2019-01-26T23:09:28.938Z,99747.88
2019-01-26T23:12:18.283Z,99745.94
2019-01-26T23:15:17.253Z,99738.33
2019-01-26T23:18:31.266Z,99726.47
2019-01-26T23:21:19.544Z,99726.47
2019-01-26T23:24:01.593Z,99726.95
2019-01-26T23:27:08.990Z,99722.15
2019-01-26T23:29:58.235Z,99717.41
2019-01-26T23:32:30.094Z,99711.09
2019-01-26T23:35:01.833Z,99705.16
2019-01-26T23:37:33.916Z,99704.39
2019-01-26T23:40:10.533Z,99703.37
2019-01-26T23:42:42.593Z,99698.08
2019-01-26T23:45:14.330Z,99692.75
2019-01-26T23:47:46.018Z,99695.12
2019-01-26T23:50:17.685Z,99689.28
2019-01-26T23:52:49.695Z,99683.24
2019-01-26T23:55:21.433Z,99675.04
2019-01-26T23:57:53.106Z,99680.97
